createdAt,value
2023-01-11T00:01:41.078Z,30.57
2023-01-11T00:04:10.763Z,30.37
2023-01-11T00:06:38.950Z,29.23
2023-01-11T00:09:07.291Z,31.13
2023-01-11T00:11:35.608Z,30.17
2023-01-11T00:14:06.870Z,33.10
2023-01-11T00:16:35.017Z,32.30
2023-01-11T00:19:03.387Z,30.13
2023-01-11T00:21:33.175Z,32.23
2023-01-11T00:24:01.479Z,27.70
2023-01-11T00:26:29.728Z,27.30
2023-01-11T00:29:00.349Z,23.03
2023-01-11T00:31:28.757Z,23.27
2023-01-11T00:33:57.077Z,24.37
2023-01-11T00:36:25.311Z,19.20
2023-01-11T00:38:55.526Z,20.70
2023-01-11T00:41:42.246Z,21.07
2023-01-11T00:44:30.068Z,20.80
2023-01-11T00:47:16.425Z,21.00
2023-01-11T00:49:47.421Z,21.40
2023-01-11T00:52:16.151Z,21.83
2023-01-11T00:54:45.658Z,22.00
2023-01-11T00:57:14.070Z,21.83
2023-01-11T00:59:42.335Z,21.90
2023-01-11T01:02:11.527Z,22.50
2023-01-11T01:08:21.657Z,22.23
2023-01-11T01:10:54.043Z,24.07
2023-01-11T01:13:40.131Z,24.13
2023-01-11T01:16:09.218Z,23.87
2023-01-11T01:18:37.519Z,24.27
2023-01-11T01:24:55.375Z,21.43
2023-01-11T01:27:44.484Z,22.47
2023-01-11T01:30:18.189Z,21.03
2023-01-11T01:32:48.315Z,22.00
2023-01-11T01:35:16.560Z,20.77
2023-01-11T01:37:48.270Z,22.43
2023-01-11T01:40:18.510Z,23.30
2023-01-11T01:42:48.178Z,20.37
2023-01-11T01:45:35.614Z,20.97
2023-01-11T01:48:11.659Z,22.30
2023-01-11T01:50:49.203Z,21.47
2023-01-11T01:53:27.349Z,21.27
2023-01-11T01:56:01.488Z,21.50
2023-01-11T01:59:05.405Z,22.20
2023-01-11T02:01:59.786Z,21.63
2023-01-11T02:04:32.384Z,22.40
2023-01-11T02:07:09.851Z,22.27
2023-01-11T02:10:11.136Z,21.70
2023-01-11T02:13:09.062Z,21.53
2023-01-11T02:15:40.700Z,21.40
2023-01-11T02:19:02.197Z,21.60
2023-01-11T02:22:35.436Z,20.73
2023-01-11T02:26:13.582Z,21.97
2023-01-11T02:29:26.890Z,21.40
2023-01-11T02:35:46.782Z,22.07
2023-01-11T02:38:34.341Z,21.73
2023-01-11T02:41:57.109Z,22.10
2023-01-11T02:44:56.026Z,21.73
2023-01-11T02:47:33.217Z,21.73
2023-01-11T02:50:14.243Z,22.20
2023-01-11T02:52:55.611Z,20.67
2023-01-11T02:58:22.907Z,21.97
2023-01-11T03:01:04.514Z,21.10
2023-01-11T03:03:37.090Z,21.60
2023-01-11T03:06:08.163Z,20.90
2023-01-11T03:09:11.451Z,25.47
2023-01-11T03:12:10.630Z,24.27
2023-01-11T03:14:51.991Z,25.00
2023-01-11T03:17:37.923Z,25.37
2023-01-11T03:20:15.670Z,26.37
2023-01-11T03:22:54.470Z,26.43
2023-01-11T03:25:30.702Z,26.80
2023-01-11T03:28:08.361Z,26.57
2023-01-11T03:30:43.288Z,26.73
2023-01-11T03:33:18.962Z,26.73
2023-01-11T03:36:02.565Z,27.03
2023-01-11T03:38:37.758Z,28.00
2023-01-11T03:41:15.352Z,27.97
2023-01-11T03:43:47.744Z,25.27
2023-01-11T03:46:20.108Z,26.80
2023-01-11T03:48:54.042Z,25.77
2023-01-11T03:51:50.269Z,26.40
2023-01-11T03:54:48.560Z,27.27
2023-01-11T03:57:21.304Z,26.00
2023-01-11T03:59:51.192Z,25.90
2023-01-11T04:02:23.719Z,25.37
2023-01-11T04:04:55.093Z,25.27
2023-01-11T04:07:23.375Z,26.20
2023-01-11T04:14:24.643Z,26.90
2023-01-11T04:16:52.872Z,27.67
2023-01-11T04:19:21.309Z,27.00
2023-01-11T04:21:52.706Z,27.90
2023-01-11T04:24:25.333Z,28.80
2023-01-11T04:26:53.696Z,28.50
2023-01-11T04:29:21.965Z,28.40
2023-01-11T04:31:57.296Z,28.73
2023-01-11T04:34:25.729Z,28.67
2023-01-11T04:36:55.260Z,30.93
2023-01-11T04:39:23.867Z,31.47
2023-01-11T04:42:09.778Z,31.93
2023-01-11T04:45:12.274Z,31.03
2023-01-11T04:47:41.058Z,30.20
2023-01-11T04:50:11.897Z,29.23
2023-01-11T04:52:41.975Z,28.73
2023-01-11T04:55:12.604Z,30.13
2023-01-11T04:57:41.719Z,29.37
2023-01-11T05:00:11.686Z,27.47
2023-01-11T05:02:43.600Z,25.43
2023-01-11T05:05:14.155Z,27.40
2023-01-11T05:07:45.737Z,25.93
2023-01-11T05:10:16.867Z,28.00
2023-01-11T05:12:47.007Z,26.03
2023-01-11T05:15:15.376Z,27.43
2023-01-11T05:17:43.659Z,26.97
2023-01-11T05:20:12.836Z,27.87
2023-01-11T05:22:45.912Z,26.57
2023-01-11T05:25:14.039Z,30.20
2023-01-11T05:27:42.189Z,30.57
2023-01-11T05:30:12.013Z,26.10
2023-01-11T05:32:40.220Z,26.73
2023-01-11T05:35:11.225Z,27.37
2023-01-11T05:37:43.138Z,29.33
2023-01-11T05:40:13.771Z,29.83
2023-01-11T05:42:42.030Z,28.40
2023-01-11T05:45:28.449Z,31.93
2023-01-11T05:48:02.334Z,34.47
2023-01-11T05:50:31.530Z,33.47
2023-01-11T05:52:59.746Z,29.27
2023-01-11T05:55:32.918Z,28.17
2023-01-11T05:58:01.237Z,27.83
2023-01-11T06:00:29.515Z,28.33
2023-01-11T06:02:58.045Z,26.43
2023-01-11T06:05:26.990Z,27.90
2023-01-11T06:07:55.643Z,26.80
2023-01-11T06:10:48.327Z,26.07
2023-01-11T06:13:30.529Z,25.83
2023-01-11T06:16:03.428Z,23.20
2023-01-11T06:18:41.986Z,23.10
2023-01-11T06:21:15.015Z,22.07
2023-01-11T06:23:45.380Z,17.03
2023-01-11T06:26:20.915Z,17.67
2023-01-11T06:28:55.608Z,18.53
2023-01-11T06:31:28.299Z,16.17
2023-01-11T06:34:00.712Z,16.13
2023-01-11T06:36:30.032Z,14.80
2023-01-11T06:39:02.345Z,15.07
2023-01-11T06:41:31.002Z,15.77
2023-01-11T06:44:00.992Z,17.67
2023-01-11T06:46:35.061Z,16.07
2023-01-11T06:49:06.477Z,14.80
2023-01-11T06:51:35.261Z,15.57
2023-01-11T06:54:03.678Z,16.77
2023-01-11T06:56:31.802Z,18.07
2023-01-11T06:59:01.681Z,18.20
2023-01-11T07:01:30.823Z,17.30
2023-01-11T07:03:59.228Z,16.73
2023-01-11T07:06:29.205Z,19.53
2023-01-11T07:09:02.408Z,20.27
2023-01-11T07:11:35.547Z,17.53
2023-01-11T07:14:05.167Z,16.70
2023-01-11T07:16:33.507Z,15.87
2023-01-11T07:19:01.775Z,15.77
2023-01-11T07:21:30.043Z,16.80
2023-01-11T07:23:58.491Z,16.00
2023-01-11T07:26:28.239Z,15.97
2023-01-11T07:28:56.795Z,17.13
2023-01-11T07:31:26.435Z,17.43
2023-01-11T07:33:54.727Z,15.50
2023-01-11T07:36:23.013Z,14.63
2023-01-11T07:38:54.457Z,14.80
2023-01-11T07:41:40.011Z,15.20
2023-01-11T07:44:13.075Z,15.03
2023-01-11T07:46:42.854Z,15.40
2023-01-11T07:49:14.518Z,17.07
2023-01-11T07:51:42.632Z,15.27
2023-01-11T07:54:11.076Z,15.23
2023-01-11T07:56:39.282Z,15.20
2023-01-11T07:59:07.531Z,14.27
2023-01-11T08:01:35.823Z,14.43
2023-01-11T08:04:08.511Z,14.97
2023-01-11T08:09:49.576Z,15.67
2023-01-11T08:12:38.489Z,16.10
2023-01-11T08:15:10.272Z,14.83
2023-01-11T08:17:47.598Z,12.53
2023-01-11T08:20:22.103Z,13.03
2023-01-11T08:23:05.128Z,13.40
2023-01-11T08:25:34.969Z,14.20
2023-01-11T08:28:12.475Z,14.40
2023-01-11T08:30:40.866Z,15.63
2023-01-11T08:33:13.212Z,13.77
2023-01-11T08:35:43.196Z,13.27
2023-01-11T08:38:12.548Z,13.53
2023-01-11T08:40:45.337Z,13.17
2023-01-11T08:43:16.592Z,13.37
2023-01-11T08:45:44.732Z,14.23
2023-01-11T08:48:13.626Z,12.77
2023-01-11T08:50:46.492Z,13.70
2023-01-11T08:53:15.809Z,14.10
2023-01-11T08:55:44.790Z,14.80
2023-01-11T08:58:13.034Z,14.83
2023-01-11T09:00:46.419Z,14.70
2023-01-11T09:03:15.583Z,13.83
2023-01-11T09:05:46.793Z,14.27
2023-01-11T09:08:22.523Z,14.07
2023-01-11T09:10:50.787Z,14.03
2023-01-11T09:13:20.591Z,14.53
2023-01-11T09:15:50.106Z,15.07
2023-01-11T09:18:42.561Z,14.80
2023-01-11T09:21:12.148Z,18.40
2023-01-11T09:23:45.146Z,15.17
2023-01-11T09:26:25.288Z,14.40
2023-01-11T09:29:01.011Z,14.03
2023-01-11T09:31:32.952Z,14.23
2023-01-11T09:34:08.324Z,13.60
2023-01-11T09:36:40.257Z,14.00
2023-01-11T09:39:15.746Z,14.47
2023-01-11T09:42:07.331Z,13.43
2023-01-11T09:44:42.201Z,14.07
2023-01-11T09:47:16.830Z,12.67
2023-01-11T09:50:13.670Z,13.40
2023-01-11T09:53:12.859Z,13.20
2023-01-11T09:55:46.660Z,13.47
2023-01-11T09:58:46.828Z,12.67
2023-01-11T10:01:41.262Z,13.80
2023-01-11T10:04:37.224Z,14.03
2023-01-11T10:07:30.101Z,14.37
2023-01-11T10:18:26.164Z,14.83
2023-01-11T10:21:58.300Z,15.63
2023-01-11T10:24:30.102Z,14.57
2023-01-11T10:27:05.901Z,16.60
2023-01-11T10:29:53.113Z,14.93
2023-01-11T10:33:18.262Z,14.57
2023-01-11T10:36:10.668Z,15.17
2023-01-11T10:39:03.221Z,15.43
2023-01-11T10:44:44.441Z,15.60
2023-01-11T10:47:20.166Z,15.73
2023-01-11T10:49:58.110Z,16.00
2023-01-11T10:52:43.491Z,16.00
2023-01-11T10:55:17.798Z,15.70
2023-01-11T10:58:00.400Z,15.97
2023-01-11T11:00:37.987Z,16.03
2023-01-11T11:03:48.122Z,15.87
2023-01-11T11:06:25.071Z,16.23
2023-01-11T11:09:44.769Z,17.67
2023-01-11T11:12:19.462Z,17.50
2023-01-11T11:14:58.216Z,17.03
2023-01-11T11:17:34.307Z,16.77
2023-01-11T11:20:16.868Z,18.10
2023-01-11T11:22:46.701Z,17.07
2023-01-11T11:25:18.551Z,17.87
2023-01-11T11:27:54.673Z,16.57
2023-01-11T11:30:30.426Z,15.73
2023-01-11T11:33:06.351Z,16.43
2023-01-11T11:35:38.597Z,15.97
2023-01-11T11:38:23.671Z,16.17
2023-01-11T11:40:59.258Z,16.47
2023-01-11T11:43:29.592Z,16.07
2023-01-11T11:45:59.428Z,15.90
2023-01-11T11:48:31.261Z,16.17
2023-01-11T11:51:03.168Z,14.20
2023-01-11T11:53:43.081Z,14.73
2023-01-11T11:56:24.865Z,13.47
2023-01-11T11:58:58.972Z,14.97
2023-01-11T12:01:31.659Z,15.07
2023-01-11T12:04:19.255Z,15.53
2023-01-11T12:06:54.669Z,14.97
2023-01-11T12:09:29.694Z,15.30
2023-01-11T12:11:58.891Z,13.77
2023-01-11T12:14:29.488Z,14.60
2023-01-11T12:16:59.516Z,14.87
2023-01-11T12:19:35.501Z,15.90
2023-01-11T12:22:19.330Z,21.80
2023-01-11T12:24:51.191Z,14.30
2023-01-11T12:27:33.739Z,14.53
2023-01-11T12:30:15.982Z,14.67
2023-01-11T12:33:17.903Z,14.23
2023-01-11T12:35:57.396Z,14.30
2023-01-11T12:38:35.663Z,13.77
2023-01-11T12:41:53.775Z,14.40
2023-01-11T12:45:06.235Z,14.00
2023-01-11T12:48:01.943Z,14.87
2023-01-11T12:50:35.829Z,13.90
2023-01-11T12:53:47.037Z,13.27
2023-01-11T12:56:37.823Z,13.27
2023-01-11T12:59:26.678Z,13.10
2023-01-11T13:02:03.850Z,14.00
2023-01-11T13:04:48.511Z,14.73
2023-01-11T13:07:56.800Z,14.33
2023-01-11T13:10:59.282Z,13.60
2023-01-11T13:13:32.439Z,14.07
2023-01-11T13:16:14.541Z,14.53
2023-01-11T13:18:49.871Z,14.27
2023-01-11T13:21:31.300Z,14.77
2023-01-11T13:24:15.352Z,15.53
2023-01-11T13:26:50.917Z,13.80
2023-01-11T13:29:28.652Z,14.77
2023-01-11T13:32:01.918Z,14.10
2023-01-11T13:34:37.881Z,13.70
2023-01-11T13:37:13.290Z,13.97
2023-01-11T13:39:46.797Z,13.60
2023-01-11T13:42:22.785Z,13.07
2023-01-11T13:44:54.823Z,13.20
2023-01-11T13:47:30.700Z,15.50
2023-01-11T13:50:24.328Z,13.10
2023-01-11T13:53:04.063Z,13.70
2023-01-11T13:55:38.751Z,15.07
2023-01-11T13:58:15.244Z,14.33
2023-01-11T14:00:49.338Z,12.47
2023-01-11T14:03:26.087Z,13.20
2023-01-11T14:06:08.602Z,13.47
2023-01-11T14:09:04.615Z,13.53
2023-01-11T14:11:42.488Z,13.27
2023-01-11T14:14:29.843Z,13.40
2023-01-11T14:17:10.645Z,14.47
2023-01-11T14:19:46.564Z,12.93
2023-01-11T14:22:26.281Z,14.13
2023-01-11T14:25:00.481Z,12.87
2023-01-11T14:27:56.984Z,12.43
2023-01-11T14:30:57.566Z,13.67
2023-01-11T14:38:08.778Z,13.03
2023-01-11T14:41:12.340Z,13.53
2023-01-11T14:44:14.910Z,13.40
2023-01-11T14:47:17.668Z,13.67
2023-01-11T14:49:59.639Z,14.50
2023-01-11T14:52:39.546Z,13.10
2023-01-11T14:55:20.295Z,14.03
2023-01-11T14:58:06.317Z,15.60
2023-01-11T15:01:12.147Z,15.00
2023-01-11T15:03:57.904Z,14.60
2023-01-11T15:06:31.882Z,14.03
2023-01-11T15:09:01.316Z,15.13
2023-01-11T15:11:41.976Z,15.63
2023-01-11T15:14:34.679Z,15.60
2023-01-11T15:17:21.458Z,15.73
2023-01-11T15:19:53.368Z,14.57
2023-01-11T15:22:30.889Z,15.80
2023-01-11T15:25:06.033Z,15.57
2023-01-11T15:27:38.018Z,15.10
2023-01-11T15:30:30.310Z,15.50
2023-01-11T15:33:29.589Z,17.73
2023-01-11T15:36:08.687Z,15.83
2023-01-11T15:38:42.504Z,15.00
2023-01-11T15:41:34.472Z,15.53
2023-01-11T15:44:19.106Z,15.23
2023-01-11T15:47:17.739Z,15.43
2023-01-11T15:50:16.757Z,15.83
2023-01-11T15:53:21.942Z,15.70
2023-01-11T15:56:19.214Z,16.27
2023-01-11T15:59:13.420Z,16.00
2023-01-11T16:01:55.908Z,15.30
2023-01-11T16:04:31.796Z,15.67
2023-01-11T16:07:22.389Z,16.80
2023-01-11T16:10:28.449Z,16.73
2023-01-11T16:13:09.963Z,15.70
2023-01-11T16:15:49.923Z,15.80
2023-01-11T16:18:23.453Z,15.67
2023-01-11T16:21:03.405Z,18.93
2023-01-11T16:23:34.554Z,14.87
2023-01-11T16:26:05.779Z,14.50
2023-01-11T16:28:34.150Z,14.67
2023-01-11T16:31:11.846Z,14.73
2023-01-11T16:33:40.095Z,14.10
2023-01-11T16:36:15.768Z,13.43
2023-01-11T16:38:50.907Z,14.50
2023-01-11T16:41:23.605Z,14.10
2023-01-11T16:44:04.169Z,14.63
2023-01-11T16:47:07.563Z,14.83
2023-01-11T16:49:36.175Z,16.23
2023-01-11T16:52:39.359Z,15.87
2023-01-11T16:55:29.647Z,15.27
2023-01-11T16:58:01.179Z,15.63
2023-01-11T17:00:43.551Z,16.43
2023-01-11T17:03:30.717Z,15.60
2023-01-11T17:06:28.363Z,15.83
2023-01-11T17:08:59.995Z,16.53
2023-01-11T17:11:36.214Z,15.83
2023-01-11T17:14:52.298Z,16.00
2023-01-11T17:17:21.845Z,16.13
2023-01-11T17:19:51.668Z,17.30
2023-01-11T17:22:23.733Z,17.67
2023-01-11T17:24:58.285Z,16.97
2023-01-11T17:27:31.815Z,16.90
2023-01-11T17:30:06.441Z,15.83
2023-01-11T17:32:45.467Z,16.17
2023-01-11T17:35:17.422Z,17.13
2023-01-11T17:37:46.931Z,16.50
2023-01-11T17:40:28.342Z,16.20
2023-01-11T17:43:20.694Z,16.00
2023-01-11T17:45:56.648Z,16.03
2023-01-11T17:48:27.290Z,16.07
2023-01-11T17:50:58.431Z,16.90
2023-01-11T17:53:28.635Z,15.97
2023-01-11T17:55:59.487Z,15.23
2023-01-11T17:58:30.068Z,15.60
2023-01-11T18:01:15.914Z,15.53
2023-01-11T18:03:50.296Z,16.00
2023-01-11T18:06:28.129Z,16.33
2023-01-11T18:08:57.736Z,17.93
2023-01-11T18:11:27.710Z,16.07
2023-01-11T18:14:00.268Z,16.63
2023-01-11T18:16:29.940Z,16.20
2023-01-11T18:19:00.964Z,15.47
2023-01-11T18:21:42.813Z,16.27
2023-01-11T18:24:30.595Z,15.20
2023-01-11T18:27:24.471Z,14.93
2023-01-11T18:29:57.641Z,15.07
2023-01-11T18:32:27.023Z,15.23
2023-01-11T18:34:56.324Z,14.37
2023-01-11T18:37:24.578Z,15.33
2023-01-11T18:39:54.042Z,14.77
2023-01-11T18:42:28.553Z,13.17
2023-01-11T18:44:58.248Z,14.63
2023-01-11T18:47:29.427Z,15.03
2023-01-11T18:49:59.449Z,14.30
2023-01-11T18:52:29.566Z,14.70
2023-01-11T18:54:58.396Z,14.43
2023-01-11T18:57:27.109Z,14.17
2023-01-11T18:59:55.745Z,15.37
2023-01-11T19:02:27.716Z,14.63
2023-01-11T19:04:57.307Z,16.30
2023-01-11T19:07:26.429Z,15.10
2023-01-11T19:09:55.899Z,16.00
2023-01-11T19:12:28.509Z,15.17
2023-01-11T19:14:56.772Z,16.33
2023-01-11T19:17:28.493Z,16.33
2023-01-11T19:19:56.792Z,17.40
2023-01-11T19:22:26.687Z,18.17
2023-01-11T19:24:58.310Z,17.20
2023-01-11T19:27:30.145Z,15.83
2023-01-11T19:29:58.705Z,15.30
2023-01-11T19:32:28.295Z,14.67
2023-01-11T19:34:58.124Z,14.17
2023-01-11T19:37:27.712Z,14.30
2023-01-11T19:39:55.863Z,13.67
2023-01-11T19:42:24.474Z,14.10
2023-01-11T19:44:52.673Z,12.93
2023-01-11T19:47:21.021Z,13.80
2023-01-11T19:49:50.701Z,14.23
2023-01-11T19:52:21.702Z,13.77
2023-01-11T19:54:49.932Z,13.40
2023-01-11T19:57:20.760Z,13.27
2023-01-11T19:59:50.067Z,13.27
2023-01-11T20:02:23.861Z,13.67
2023-01-11T20:04:53.489Z,13.07
2023-01-11T20:07:22.113Z,13.43
2023-01-11T20:09:53.845Z,13.37
2023-01-11T20:12:57.565Z,14.13
2023-01-11T20:15:28.661Z,14.50
2023-01-11T20:17:56.903Z,14.90
2023-01-11T20:20:26.495Z,15.23
2023-01-11T20:22:55.342Z,15.20
2023-01-11T20:25:23.625Z,14.63
2023-01-11T20:27:54.842Z,17.13
2023-01-11T20:30:23.298Z,15.77
2023-01-11T20:32:51.604Z,16.93
2023-01-11T20:35:22.513Z,16.80
2023-01-11T20:37:53.859Z,16.57
2023-01-11T20:40:22.670Z,16.97
2023-01-11T20:42:51.160Z,16.77
2023-01-11T20:45:19.640Z,17.70
2023-01-11T20:47:48.081Z,18.37
2023-01-11T20:50:17.719Z,17.73
2023-01-11T20:53:01.463Z,18.40
2023-01-11T20:55:33.590Z,18.40
2023-01-11T20:58:01.813Z,18.50
2023-01-11T21:00:33.643Z,18.87
2023-01-11T21:03:01.952Z,19.97
2023-01-11T21:05:30.246Z,19.27
2023-01-11T21:08:00.355Z,19.80
2023-01-11T21:10:28.843Z,18.97
2023-01-11T21:15:26.470Z,20.63
2023-01-11T21:17:56.609Z,20.43
2023-01-11T21:20:24.911Z,20.20
2023-01-11T21:22:54.704Z,20.30
2023-01-11T21:25:24.367Z,19.17
2023-01-11T21:27:56.053Z,20.77
2023-01-11T21:30:24.413Z,20.73
2023-01-11T21:32:57.307Z,20.33
2023-01-11T21:35:31.467Z,20.37
2023-01-11T21:37:59.832Z,20.80
2023-01-11T21:40:34.108Z,21.07
2023-01-11T21:43:02.495Z,19.70
2023-01-11T21:45:31.268Z,20.40
2023-01-11T21:47:59.564Z,20.20
2023-01-11T21:50:27.916Z,20.07
2023-01-11T21:53:07.293Z,19.43
2023-01-11T21:55:36.939Z,21.37
2023-01-11T21:58:05.333Z,21.03
2023-01-11T22:00:34.309Z,21.03
2023-01-11T22:03:02.785Z,21.40
2023-01-11T22:05:35.526Z,20.83
2023-01-11T22:08:04.005Z,21.17
2023-01-11T22:10:33.446Z,21.93
2023-01-11T22:13:06.032Z,20.93
2023-01-11T22:15:34.352Z,22.53
2023-01-11T22:18:04.512Z,19.67
2023-01-11T22:20:32.792Z,20.67
2023-01-11T22:23:01.022Z,20.93
2023-01-11T22:25:29.300Z,21.50
2023-01-11T22:27:57.848Z,19.93
2023-01-11T22:30:27.489Z,21.47
2023-01-11T22:33:00.718Z,20.23
2023-01-11T22:35:31.968Z,20.30
2023-01-11T22:38:01.389Z,21.00
2023-01-11T22:40:29.672Z,20.50
2023-01-11T22:42:59.314Z,20.97
2023-01-11T22:45:28.934Z,21.47
2023-01-11T22:48:00.451Z,20.37
2023-01-11T22:50:28.655Z,21.07
2023-01-11T22:56:34.984Z,20.50
2023-01-11T22:59:03.647Z,21.57
2023-01-11T23:01:34.941Z,21.50
2023-01-11T23:04:05.455Z,21.07
2023-01-11T23:06:35.263Z,21.77
2023-01-11T23:09:04.229Z,20.93
2023-01-11T23:11:55.683Z,21.60
2023-01-11T23:14:43.051Z,21.97
2023-01-11T23:17:12.694Z,21.97
2023-01-11T23:19:45.641Z,21.77
2023-01-11T23:22:17.893Z,22.17
2023-01-11T23:25:15.030Z,21.83
2023-01-11T23:27:43.953Z,22.80
2023-01-11T23:30:13.521Z,21.63
2023-01-11T23:32:47.370Z,21.37
2023-01-11T23:35:15.701Z,22.03
2023-01-11T23:37:43.969Z,22.17
2023-01-11T23:40:12.939Z,21.27
2023-01-11T23:42:40.360Z,22.43
2023-01-11T23:45:09.824Z,21.83
2023-01-11T23:47:39.251Z,21.47
2023-01-11T23:50:12.572Z,21.13
2023-01-11T23:52:47.611Z,22.27
2023-01-11T23:55:20.720Z,22.70
2023-01-11T23:58:09.019Z,22.70
